Time;durP1;ratioP1;P1;durP2;ratioP2;P2;SDS_P1;SDS_P2;PMS_P1;PMS_P2;Temp;Humidity;BMP_temperature;BMP_pressure;BME280_temperature;BME280_humidity;BME280_pressure;Samples;Min_cycle;Max_cycle;Signal;HPM_P1;HPM_P2
2024/04/11 00:00:37;;;;;;;;;;;12.00;99.90;;;;;;5449879;26;19935;-64
2024/04/11 00:03:04;;;;;;;;;;;12.00;99.90;;;;;;5445887;26;19928;-63
2024/04/11 00:05:31;;;;;;;;;;;12.00;99.90;;;;;;5443576;26;20299;-64
2024/04/11 00:07:58;;;;;;;;;;;12.00;99.90;;;;;;5442611;26;20379;-63
2024/04/11 00:10:25;;;;;;;;;;;12.10;99.90;;;;;;5454482;26;19934;-63
2024/04/11 00:12:52;;;;;;;;;;;12.00;99.90;;;;;;5472805;26;19928;-63
2024/04/11 00:15:20;;;;;;;;;;;12.10;99.90;;;;;;5452909;26;19938;-64
2024/04/11 00:17:47;;;;;;;;;;;12.10;99.90;;;;;;5449535;26;19928;-63
2024/04/11 00:20:14;;;;;;;;;;;12.10;99.90;;;;;;5459808;26;19929;-63
2024/04/11 00:22:41;;;;;;;;;;;12.00;99.90;;;;;;5438841;26;19935;-63
2024/04/11 00:25:09;;;;;;;;;;;12.10;99.90;;;;;;5439728;26;19929;-63
2024/04/11 00:27:36;;;;;;;;;;;12.00;99.90;;;;;;5439975;26;20360;-63
2024/04/11 00:30:03;;;;;;;;;;;12.00;99.90;;;;;;5438262;26;19928;-63
2024/04/11 00:32:30;;;;;;;;;;;12.00;99.90;;;;;;5448776;26;19928;-64
2024/04/11 00:34:57;;;;;;;;;;;12.00;99.90;;;;;;5449054;26;19928;-64
2024/04/11 00:37:25;;;;;;;;;;;12.10;99.90;;;;;;5440480;26;19936;-64
2024/04/11 00:39:52;;;;;;;;;;;12.00;99.90;;;;;;5456901;26;20365;-63
2024/04/11 00:42:19;;;;;;;;;;;12.10;99.90;;;;;;5440553;26;19929;-63
2024/04/11 00:44:46;;;;;;;;;;;12.10;99.90;;;;;;5458965;26;19935;-64
2024/04/11 00:47:13;;;;;;;;;;;12.10;99.90;;;;;;5461079;26;19928;-63
2024/04/11 00:49:40;;;;;;;;;;;12.10;99.90;;;;;;5448927;26;19928;-63
2024/04/11 00:52:10;;;;;;;;;;;12.20;99.90;;;;;;5461831;26;19935;-63
2024/04/11 00:54:37;;;;;;;;;;;12.10;99.90;;;;;;5441822;26;19935;-63
2024/04/11 00:57:07;;;;;;;;;;;12.20;99.90;;;;;;5440216;26;20295;-63
2024/04/11 00:59:38;;;;;;;;;;;12.20;99.90;;;;;;5452853;26;19928;-63
2024/04/11 01:02:06;;;;;;;;;;;12.20;99.90;;;;;;5439202;26;19934;-63
2024/04/11 01:04:33;;;;;;;;;;;12.20;99.90;;;;;;5439837;26;19998;-63
2024/04/11 01:07:09;;;;;;;;;;;12.20;99.90;;;;;;5463422;26;20477;-63
2024/04/11 01:09:43;;;;;;;;;;;12.30;99.90;;;;;;5450701;26;19934;-64
2024/04/11 01:12:13;;;;;;;;;;;12.30;99.90;;;;;;5452923;26;19928;-63
2024/04/11 01:14:41;;;;;;;;;;;12.30;99.90;;;;;;5440485;26;19935;-63
2024/04/11 01:17:12;;;;;;;;;;;12.30;99.90;;;;;;5447662;26;19942;-63
2024/04/11 01:19:40;;;;;;;;;;;12.30;99.90;;;;;;5438537;26;19928;-63
2024/04/11 01:22:09;;;;;;;;;;;12.40;99.90;;;;;;5452601;26;19928;-63
2024/04/11 01:24:40;;;;;;;;;;;12.30;99.90;;;;;;5469496;26;19934;-64
2024/04/11 01:27:10;;;;;;;;;;;12.40;99.90;;;;;;5441351;26;20396;-64
2024/04/11 01:29:38;;;;;;;;;;;12.30;99.90;;;;;;5456613;26;20403;-63
2024/04/11 01:32:06;;;;;;;;;;;12.40;99.90;;;;;;5455323;26;20349;-64
2024/04/11 01:34:32;;;;;;;;;;;12.30;99.90;;;;;;5439123;26;20287;-63
2024/04/11 01:36:59;;;;;;;;;;;12.40;99.90;;;;;;5468865;26;19928;-63
2024/04/11 01:39:26;;;;;;;;;;;12.30;99.90;;;;;;5441132;26;19936;-63
2024/04/11 01:41:53;;;;;;;;;;;12.30;99.90;;;;;;5457293;26;19928;-63
2024/04/11 01:44:21;;;;;;;;;;;12.40;99.90;;;;;;5451300;26;20572;-63
2024/04/11 01:46:49;;;;;;;;;;;12.40;99.90;;;;;;5440440;26;20537;-64
2024/04/11 01:49:16;;;;;;;;;;;12.40;99.90;;;;;;5444941;26;19935;-63
2024/04/11 01:51:43;;;;;;;;;;;12.40;99.90;;;;;;5453830;26;19935;-63
2024/04/11 01:54:11;;;;;;;;;;;12.40;99.90;;;;;;5442461;26;19943;-63
2024/04/11 01:56:39;;;;;;;;;;;12.40;99.90;;;;;;5442936;26;19929;-63
2024/04/11 01:59:06;;;;;;;;;;;12.40;99.90;;;;;;5454532;26;19928;-63
2024/04/11 02:01:34;;;;;;;;;;;12.40;99.90;;;;;;5453421;26;20341;-63
2024/04/11 02:04:05;;;;;;;;;;;12.40;99.90;;;;;;5439401;26;20446;-63
2024/04/11 02:06:34;;;;;;;;;;;12.40;99.90;;;;;;5438962;26;19929;-63
2024/04/11 02:09:09;;;;;;;;;;;12.40;99.90;;;;;;5452939;26;19935;-63
2024/04/11 02:11:37;;;;;;;;;;;12.40;99.90;;;;;;5440502;26;19928;-63
2024/04/11 02:14:04;;;;;;;;;;;12.40;99.90;;;;;;5422989;26;20264;-63
2024/04/11 02:16:34;;;;;;;;;;;12.40;99.90;;;;;;5451522;26;19934;-63
2024/04/11 02:19:08;;;;;;;;;;;12.50;99.90;;;;;;5439021;26;19929;-63
2024/04/11 02:21:40;;;;;;;;;;;12.50;99.90;;;;;;5451203;26;19941;-63
2024/04/11 02:24:08;;;;;;;;;;;12.50;99.90;;;;;;5450135;26;19928;-63
2024/04/11 02:26:35;;;;;;;;;;;12.50;99.90;;;;;;5442171;26;19935;-63
2024/04/11 02:29:05;;;;;;;;;;;12.50;99.90;;;;;;5452644;26;20298;-62
2024/04/11 02:31:35;;;;;;;;;;;12.50;99.90;;;;;;5438952;26;19928;-63
2024/04/11 02:34:02;;;;;;;;;;;12.50;99.90;;;;;;5442651;26;20488;-63
2024/04/11 02:36:29;;;;;;;;;;;12.50;99.90;;;;;;5453664;26;20275;-63
2024/04/11 02:38:57;;;;;;;;;;;12.60;99.90;;;;;;5452947;26;19934;-63
2024/04/11 02:41:24;;;;;;;;;;;12.60;99.90;;;;;;5448761;26;19928;-63
2024/04/11 02:43:50;;;;;;;;;;;12.60;99.90;;;;;;5449055;26;19929;-63
2024/04/11 02:46:18;;;;;;;;;;;12.60;99.90;;;;;;5471614;26;19928;-64
2024/04/11 02:48:46;;;;;;;;;;;12.60;99.90;;;;;;5448391;26;20336;-63
2024/04/11 02:51:13;;;;;;;;;;;12.60;99.90;;;;;;5458127;26;20474;-62
2024/04/11 02:53:40;;;;;;;;;;;12.60;99.90;;;;;;5447286;26;19935;-63
2024/04/11 02:56:08;;;;;;;;;;;12.60;99.90;;;;;;5462037;26;19960;-63
2024/04/11 02:58:35;;;;;;;;;;;12.60;99.90;;;;;;5447746;26;20274;-63
2024/04/11 03:01:06;;;;;;;;;;;12.60;99.90;;;;;;5441518;26;20470;-63
2024/04/11 03:03:34;;;;;;;;;;;12.60;99.90;;;;;;5449990;26;19928;-62
2024/04/11 03:06:07;;;;;;;;;;;12.60;99.90;;;;;;5438790;26;19928;-63
2024/04/11 03:08:34;;;;;;;;;;;12.60;99.90;;;;;;5463178;26;19935;-61
2024/04/11 03:11:01;;;;;;;;;;;12.60;99.90;;;;;;5439625;26;19935;-63
2024/04/11 03:13:28;;;;;;;;;;;12.70;99.90;;;;;;5451997;26;19929;-63
2024/04/11 03:15:56;;;;;;;;;;;12.70;99.90;;;;;;5442833;26;20351;-63
2024/04/11 03:18:23;;;;;;;;;;;12.70;99.90;;;;;;5437922;26;20373;-63
2024/04/11 03:20:52;;;;;;;;;;;12.70;99.90;;;;;;5454078;26;19946;-63
2024/04/11 03:23:19;;;;;;;;;;;12.70;99.90;;;;;;5445888;26;19935;-63
2024/04/11 03:25:45;;;;;;;;;;;12.70;99.90;;;;;;5441359;26;19929;-64
2024/04/11 03:28:14;;;;;;;;;;;12.70;99.90;;;;;;5458367;26;20351;-63
2024/04/11 03:30:41;;;;;;;;;;;12.70;99.90;;;;;;5451754;26;19927;-63
2024/04/11 03:33:10;;;;;;;;;;;12.70;99.90;;;;;;5456676;26;19940;-63
2024/04/11 03:35:37;;;;;;;;;;;12.70;99.90;;;;;;5472863;26;20485;-63
2024/04/11 03:38:03;;;;;;;;;;;12.80;99.90;;;;;;5464480;26;19928;-63
2024/04/11 03:40:30;;;;;;;;;;;12.80;99.90;;;;;;5451664;26;19928;-63
2024/04/11 03:42:57;;;;;;;;;;;12.70;99.90;;;;;;5456093;26;20371;-63
2024/04/11 03:45:24;;;;;;;;;;;12.70;99.90;;;;;;5445524;26;19928;-63
2024/04/11 03:47:51;;;;;;;;;;;12.80;99.90;;;;;;5441536;26;19934;-63
2024/04/11 03:50:18;;;;;;;;;;;12.80;99.90;;;;;;5461000;26;19934;-63
2024/04/11 03:52:45;;;;;;;;;;;12.80;99.90;;;;;;5446090;26;19935;-63
2024/04/11 03:55:12;;;;;;;;;;;12.80;99.90;;;;;;5440647;26;19935;-63
2024/04/11 03:57:39;;;;;;;;;;;12.70;99.90;;;;;;5469295;26;19938;-63
2024/04/11 04:00:07;;;;;;;;;;;12.80;99.90;;;;;;5470826;26;20282;-63
2024/04/11 04:02:36;;;;;;;;;;;12.80;99.90;;;;;;5442142;26;19928;-63
2024/04/11 04:05:03;;;;;;;;;;;12.80;99.90;;;;;;5456701;26;19934;-64
2024/04/11 04:07:30;;;;;;;;;;;12.80;99.90;;;;;;5440965;26;19940;-63
2024/04/11 04:10:02;;;;;;;;;;;12.80;99.90;;;;;;5449803;26;20450;-63
2024/04/11 04:12:29;;;;;;;;;;;12.80;99.90;;;;;;5441516;26;19935;-63
2024/04/11 04:14:56;;;;;;;;;;;12.80;99.90;;;;;;5450167;26;19928;-62
2024/04/11 04:17:23;;;;;;;;;;;12.80;99.90;;;;;;5441386;26;19934;-63
2024/04/11 04:19:50;;;;;;;;;;;12.70;99.90;;;;;;5448220;26;20272;-62
2024/04/11 04:22:18;;;;;;;;;;;12.70;99.90;;;;;;5442713;26;20432;-63
2024/04/11 04:24:45;;;;;;;;;;;12.70;99.90;;;;;;5456020;26;20381;-63
2024/04/11 04:27:11;;;;;;;;;;;12.70;99.90;;;;;;5448376;26;19928;-63
2024/04/11 04:29:38;;;;;;;;;;;12.60;99.90;;;;;;5468544;26;19928;-63
2024/04/11 04:32:05;;;;;;;;;;;12.60;99.90;;;;;;5465744;26;19934;-63
2024/04/11 04:34:34;;;;;;;;;;;12.50;99.90;;;;;;5453019;26;19929;-64
2024/04/11 04:37:00;;;;;;;;;;;12.50;99.90;;;;;;5448075;26;19934;-64
2024/04/11 04:39:41;;;;;;;;;;;12.40;99.90;;;;;;5450288;26;20322;-64
2024/04/11 04:42:07;;;;;;;;;;;12.30;99.90;;;;;;5467400;26;19928;-64
2024/04/11 04:44:35;;;;;;;;;;;12.20;99.90;;;;;;5449898;26;20394;-64
2024/04/11 04:47:03;;;;;;;;;;;12.20;99.90;;;;;;5453832;26;19928;-64
2024/04/11 04:49:30;;;;;;;;;;;12.10;99.90;;;;;;5461404;26;19929;-64
2024/04/11 04:51:57;;;;;;;;;;;12.10;99.90;;;;;;5449866;26;19928;-63
2024/04/11 04:54:25;;;;;;;;;;;12.00;99.90;;;;;;5453307;26;19934;-64
2024/04/11 04:56:53;;;;;;;;;;;11.90;99.90;;;;;;5452283;26;20367;-63
2024/04/11 04:59:21;;;;;;;;;;;11.90;99.90;;;;;;5452412;26;19935;-64
2024/04/11 05:01:48;;;;;;;;;;;11.80;99.90;;;;;;5453333;26;19928;-64
2024/04/11 05:04:15;;;;;;;;;;;11.70;99.90;;;;;;5393539;26;20116;-64
2024/04/11 05:06:42;;;;;;;;;;;11.70;99.90;;;;;;5453904;26;20156;-64
2024/04/11 05:09:10;;;;;;;;;;;11.70;99.90;;;;;;5453274;26;20505;-64
2024/04/11 05:11:37;;;;;;;;;;;11.60;99.90;;;;;;5450173;26;19934;-64
2024/04/11 05:14:07;;;;;;;;;;;11.60;99.90;;;;;;5454735;26;19928;-64
2024/04/11 05:16:34;;;;;;;;;;;11.60;99.90;;;;;;5449374;26;20436;-64
2024/04/11 05:19:01;;;;;;;;;;;11.50;99.90;;;;;;5451314;26;20262;-64
2024/04/11 05:21:29;;;;;;;;;;;11.50;99.90;;;;;;5450275;26;19928;-64
2024/04/11 05:23:56;;;;;;;;;;;11.50;99.90;;;;;;5451737;26;19928;-64
2024/04/11 05:26:26;;;;;;;;;;;11.50;99.90;;;;;;5449779;26;19929;-63
2024/04/11 05:28:54;;;;;;;;;;;11.50;99.90;;;;;;5453556;26;19928;-64
2024/04/11 05:31:25;;;;;;;;;;;11.50;99.90;;;;;;5450626;26;20365;-64
2024/04/11 05:33:53;;;;;;;;;;;11.50;99.90;;;;;;5454097;26;19928;-63
2024/04/11 05:36:28;;;;;;;;;;;11.50;99.90;;;;;;5454662;26;19934;-64
2024/04/11 05:38:56;;;;;;;;;;;11.50;99.90;;;;;;5454834;26;19934;-63
2024/04/11 05:41:24;;;;;;;;;;;11.50;99.90;;;;;;5452819;26;19935;-64
2024/04/11 05:43:51;;;;;;;;;;;11.50;99.90;;;;;;5451118;26;19928;-64
2024/04/11 05:46:18;;;;;;;;;;;11.50;99.90;;;;;;5452234;26;20384;-64
2024/04/11 05:48:47;;;;;;;;;;;11.60;99.90;;;;;;5450518;26;19935;-64
2024/04/11 05:51:14;;;;;;;;;;;11.60;99.90;;;;;;5452090;26;19936;-64
2024/04/11 05:53:41;;;;;;;;;;;11.60;99.90;;;;;;5453303;26;19928;-64
2024/04/11 05:56:13;;;;;;;;;;;11.60;99.90;;;;;;5454963;26;19928;-64
2024/04/11 05:58:45;;;;;;;;;;;11.60;99.90;;;;;;5448622;26;19934;-63
2024/04/11 06:01:16;;;;;;;;;;;11.60;99.90;;;;;;5452869;26;20333;-64
2024/04/11 06:03:50;;;;;;;;;;;11.60;99.90;;;;;;5446291;26;20341;-64
2024/04/11 06:06:20;;;;;;;;;;;11.70;99.90;;;;;;5450538;26;20630;-64
2024/04/11 06:08:47;;;;;;;;;;;11.70;99.90;;;;;;5452830;26;19928;-64
2024/04/11 06:11:17;;;;;;;;;;;11.80;99.90;;;;;;5453075;26;20450;-64
2024/04/11 06:13:49;;;;;;;;;;;11.80;99.90;;;;;;5454609;26;19928;-64
2024/04/11 06:16:16;;;;;;;;;;;11.70;99.90;;;;;;5452765;26;19928;-64
2024/04/11 06:18:44;;;;;;;;;;;11.80;99.90;;;;;;5453925;26;19927;-64
2024/04/11 06:21:11;;;;;;;;;;;11.80;99.90;;;;;;5453965;26;20343;-64
2024/04/11 06:23:38;;;;;;;;;;;11.80;99.90;;;;;;5450362;26;19929;-64
2024/04/11 06:26:10;;;;;;;;;;;11.90;99.90;;;;;;5452911;26;19935;-64
2024/04/11 06:28:38;;;;;;;;;;;11.90;99.90;;;;;;5448832;26;20370;-64
2024/04/11 06:31:05;;;;;;;;;;;11.80;99.90;;;;;;5451054;26;20285;-64
2024/04/11 06:33:32;;;;;;;;;;;11.80;99.90;;;;;;5449031;26;20454;-64
2024/04/11 06:35:59;;;;;;;;;;;11.90;99.90;;;;;;5454422;26;19928;-65
2024/04/11 06:38:26;;;;;;;;;;;11.90;99.90;;;;;;5448642;26;19935;-63
2024/04/11 06:40:53;;;;;;;;;;;12.00;99.90;;;;;;5443847;26;20684;-64
2024/04/11 06:43:21;;;;;;;;;;;11.90;99.90;;;;;;5436821;26;20460;-64
2024/04/11 06:45:51;;;;;;;;;;;11.90;99.90;;;;;;5450368;26;19935;-64
2024/04/11 06:48:19;;;;;;;;;;;12.00;99.90;;;;;;5451686;26;19928;-63
2024/04/11 06:50:47;;;;;;;;;;;12.00;99.90;;;;;;5450787;26;19935;-64
2024/04/11 06:53:17;;;;;;;;;;;12.00;99.90;;;;;;5448757;26;19936;-64
2024/04/11 06:55:46;;;;;;;;;;;11.90;99.90;;;;;;5448853;26;20358;-63
2024/04/11 06:58:17;;;;;;;;;;;12.00;99.90;;;;;;5452624;26;19937;-64
2024/04/11 07:00:46;;;;;;;;;;;12.10;99.90;;;;;;5448815;26;19928;-63
2024/04/11 07:03:16;;;;;;;;;;;12.00;99.90;;;;;;5451487;26;19928;-64
2024/04/11 07:05:49;;;;;;;;;;;12.00;99.90;;;;;;5448820;26;19928;-64
2024/04/11 07:08:16;;;;;;;;;;;12.10;99.90;;;;;;5447071;26;20281;-64
2024/04/11 07:10:46;;;;;;;;;;;12.00;99.90;;;;;;5450202;26;19936;-64
2024/04/11 07:13:13;;;;;;;;;;;12.00;99.90;;;;;;5447635;26;20136;-63
2024/04/11 07:15:42;;;;;;;;;;;12.10;99.90;;;;;;5452588;26;19934;-64
2024/04/11 07:18:14;;;;;;;;;;;12.10;99.90;;;;;;5448282;26;19927;-64
2024/04/11 07:20:46;;;;;;;;;;;12.00;99.90;;;;;;5450489;26;19935;-64
2024/04/11 07:23:13;;;;;;;;;;;12.10;99.90;;;;;;5448641;26;19928;-64
2024/04/11 07:25:40;;;;;;;;;;;12.10;99.90;;;;;;5452283;26;19935;-65
2024/04/11 07:28:08;;;;;;;;;;;12.00;99.90;;;;;;5446830;26;19928;-64
2024/04/11 07:30:38;;;;;;;;;;;12.10;99.90;;;;;;5446384;26;19943;-64
2024/04/11 07:33:06;;;;;;;;;;;12.10;99.90;;;;;;5453115;26;19929;-64
2024/04/11 07:35:37;;;;;;;;;;;12.20;99.90;;;;;;5450419;26;20432;-64
2024/04/11 07:38:04;;;;;;;;;;;12.10;99.90;;;;;;5451579;26;20445;-64
2024/04/11 07:40:32;;;;;;;;;;;12.10;99.90;;;;;;5450976;26;19934;-64
2024/04/11 07:43:09;;;;;;;;;;;12.20;99.90;;;;;;5450286;26;19935;-65
2024/04/11 07:45:36;;;;;;;;;;;12.20;99.90;;;;;;5445170;26;20391;-65
2024/04/11 07:48:04;;;;;;;;;;;12.20;99.90;;;;;;5447849;26;20287;-65
2024/04/11 07:50:31;;;;;;;;;;;12.10;99.90;;;;;;5449140;26;19935;-65
2024/04/11 07:52:58;;;;;;;;;;;12.20;99.90;;;;;;5450515;26;19928;-65
2024/04/11 07:55:27;;;;;;;;;;;12.30;99.90;;;;;;5450909;26;19928;-65
2024/04/11 07:57:54;;;;;;;;;;;12.30;99.90;;;;;;5451549;26;20252;-65
2024/04/11 08:00:23;;;;;;;;;;;12.20;99.90;;;;;;5449312;26;19929;-65
2024/04/11 08:02:50;;;;;;;;;;;12.30;99.90;;;;;;5447747;26;20359;-65
2024/04/11 08:05:16;;;;;;;;;;;12.30;99.90;;;;;;5451081;26;19934;-65
2024/04/11 08:07:43;;;;;;;;;;;12.30;99.90;;;;;;5451626;26;20251;-64
2024/04/11 08:10:13;;;;;;;;;;;12.40;99.90;;;;;;5450912;26;20266;-65
2024/04/11 08:12:41;;;;;;;;;;;12.40;99.90;;;;;;5452737;26;19928;-64
2024/04/11 08:15:08;;;;;;;;;;;12.50;99.90;;;;;;5452509;26;19936;-63
2024/04/11 08:17:37;;;;;;;;;;;12.50;99.90;;;;;;5449007;26;19936;-65
2024/04/11 08:20:12;;;;;;;;;;;12.50;99.90;;;;;;5450465;26;20298;-64
2024/04/11 08:22:39;;;;;;;;;;;12.70;99.90;;;;;;5451654;26;20373;-65
2024/04/11 08:25:06;;;;;;;;;;;12.60;99.90;;;;;;5449567;26;20367;-65
2024/04/11 08:27:33;;;;;;;;;;;12.70;99.90;;;;;;5453719;26;19929;-64
2024/04/11 08:30:01;;;;;;;;;;;12.80;99.90;;;;;;5449168;26;20383;-63
2024/04/11 08:32:28;;;;;;;;;;;12.80;99.90;;;;;;5450231;26;19934;-64
2024/04/11 08:34:55;;;;;;;;;;;12.70;99.90;;;;;;5451266;26;20294;-64
2024/04/11 08:37:22;;;;;;;;;;;12.70;99.90;;;;;;5453395;26;19928;-63
2024/04/11 08:39:49;;;;;;;;;;;12.70;99.90;;;;;;5452185;26;19933;-64
2024/04/11 08:42:18;;;;;;;;;;;12.80;99.90;;;;;;5451592;26;20498;-63
2024/04/11 08:44:46;;;;;;;;;;;12.90;99.90;;;;;;5451241;26;19934;-63
2024/04/11 08:47:12;;;;;;;;;;;13.10;99.90;;;;;;5449412;26;19934;-64
2024/04/11 08:49:39;;;;;;;;;;;13.10;99.90;;;;;;5452686;26;20446;-64
2024/04/11 08:52:06;;;;;;;;;;;13.20;99.90;;;;;;5454502;26;19929;-65
2024/04/11 08:54:38;;;;;;;;;;;13.00;99.90;;;;;;5452965;26;19928;-63
2024/04/11 08:57:06;;;;;;;;;;;13.20;99.90;;;;;;5450210;26;20437;-64
2024/04/11 08:59:33;;;;;;;;;;;13.10;99.90;;;;;;5437168;26;20390;-64
2024/04/11 09:01:59;;;;;;;;;;;13.10;99.90;;;;;;5441221;26;20365;-64
2024/04/11 09:04:28;;;;;;;;;;;13.20;99.90;;;;;;5446653;26;20286;-64
2024/04/11 09:06:54;;;;;;;;;;;13.10;99.90;;;;;;5453624;26;19936;-64
2024/04/11 09:09:23;;;;;;;;;;;13.20;99.90;;;;;;5452747;26;19927;-64
2024/04/11 09:11:51;;;;;;;;;;;13.10;99.90;;;;;;5451601;26;20828;-64
2024/04/11 09:14:18;;;;;;;;;;;13.20;99.90;;;;;;5443083;26;19935;-64
2024/04/11 09:16:45;;;;;;;;;;;13.30;99.90;;;;;;5444219;26;20613;-64
2024/04/11 09:19:12;;;;;;;;;;;13.30;99.90;;;;;;5444644;26;19928;-64
2024/04/11 09:21:45;;;;;;;;;;;13.20;99.90;;;;;;5443275;26;19936;-64
2024/04/11 09:24:16;;;;;;;;;;;13.40;99.90;;;;;;5439755;26;20373;-64
2024/04/11 09:26:43;;;;;;;;;;;13.40;99.90;;;;;;5436363;26;19936;-64
2024/04/11 09:29:13;;;;;;;;;;;13.40;99.90;;;;;;5436267;26;19929;-64
2024/04/11 09:31:42;;;;;;;;;;;13.40;99.90;;;;;;5428924;26;19935;-64
2024/04/11 09:34:12;;;;;;;;;;;13.40;99.90;;;;;;5445334;26;19932;-64
2024/04/11 09:36:47;;;;;;;;;;;13.50;99.90;;;;;;5453233;26;20342;-64
2024/04/11 09:39:41;;;;;;;;;;;13.50;99.90;;;;;;5450069;26;19943;-64
2024/04/11 09:42:11;;;;;;;;;;;13.50;99.90;;;;;;5455315;26;19934;-64
2024/04/11 09:44:44;;;;;;;;;;;13.50;99.90;;;;;;5454665;26;19935;-64
2024/04/11 09:47:11;;;;;;;;;;;13.50;99.90;;;;;;5451051;26;19929;-64
2024/04/11 09:49:38;;;;;;;;;;;13.50;99.90;;;;;;5451695;26;20353;-64
2024/04/11 09:52:07;;;;;;;;;;;13.70;99.90;;;;;;5453328;26;19928;-64
2024/04/11 09:54:38;;;;;;;;;;;13.60;99.90;;;;;;5452703;26;19928;-64
2024/04/11 09:57:05;;;;;;;;;;;13.60;99.90;;;;;;5455609;26;20270;-63
2024/04/11 09:59:32;;;;;;;;;;;13.70;99.90;;;;;;5451837;26;19928;-64
2024/04/11 10:02:01;;;;;;;;;;;13.70;99.90;;;;;;5453127;26;19936;-64
2024/04/11 10:04:35;;;;;;;;;;;13.70;99.90;;;;;;5450718;26;20496;-64
2024/04/11 10:07:09;;;;;;;;;;;13.70;99.90;;;;;;5450987;26;20010;-63
2024/04/11 10:09:46;;;;;;;;;;;13.90;99.90;;;;;;5451541;26;19928;-64
2024/04/11 10:12:19;;;;;;;;;;;13.70;99.90;;;;;;5451495;26;19935;-64
2024/04/11 10:14:49;;;;;;;;;;;13.80;99.90;;;;;;5454767;26;19935;-64
2024/04/11 10:17:17;;;;;;;;;;;13.90;99.90;;;;;;5446795;26;19928;-64
2024/04/11 10:19:47;;;;;;;;;;;13.90;99.90;;;;;;5454774;26;20365;-64
2024/04/11 10:22:24;;;;;;;;;;;13.80;99.90;;;;;;5452064;26;19956;-64
2024/04/11 10:25:01;;;;;;;;;;;14.00;99.90;;;;;;5445910;26;19935;-64
2024/04/11 10:27:29;;;;;;;;;;;13.80;99.90;;;;;;5431770;26;20372;-64
2024/04/11 10:29:56;;;;;;;;;;;13.80;99.90;;;;;;5449290;26;19928;-65
2024/04/11 10:32:26;;;;;;;;;;;13.90;99.90;;;;;;5452683;26;19934;-64
2024/04/11 10:34:56;;;;;;;;;;;13.90;99.90;;;;;;5447925;26;19929;-64
2024/04/11 10:37:24;;;;;;;;;;;13.80;99.90;;;;;;5432956;26;19956;-64
2024/04/11 10:39:54;;;;;;;;;;;14.10;99.90;;;;;;5443183;26;19928;-64
2024/04/11 10:42:31;;;;;;;;;;;14.10;99.90;;;;;;5445823;26;19928;-64
2024/04/11 10:44:59;;;;;;;;;;;13.90;99.90;;;;;;5446233;26;19928;-64
2024/04/11 10:47:26;;;;;;;;;;;14.10;99.90;;;;;;5433290;26;19928;-64
2024/04/11 10:49:55;;;;;;;;;;;14.10;99.90;;;;;;5442875;26;19928;-64
2024/04/11 10:52:24;;;;;;;;;;;14.10;99.90;;;;;;5445182;26;19928;-64
2024/04/11 10:55:00;;;;;;;;;;;14.30;99.90;;;;;;5449895;26;19929;-63
2024/04/11 10:57:27;;;;;;;;;;;14.20;99.90;;;;;;5451099;26;19928;-63
2024/04/11 11:00:10;;;;;;;;;;;14.20;99.90;;;;;;5451544;26;19937;-64
2024/04/11 11:02:38;;;;;;;;;;;14.40;99.90;;;;;;5448266;26;20282;-64
2024/04/11 11:05:07;;;;;;;;;;;14.30;99.90;;;;;;5448638;26;19928;-64
2024/04/11 11:07:37;;;;;;;;;;;14.30;99.90;;;;;;5452725;26;20527;-64
2024/04/11 11:10:11;;;;;;;;;;;14.40;99.90;;;;;;5447502;26;20370;-64
2024/04/11 11:12:38;;;;;;;;;;;14.50;99.90;;;;;;5449224;26;20352;-64
2024/04/11 11:15:06;;;;;;;;;;;14.50;99.90;;;;;;5448133;26;19929;-64
2024/04/11 11:17:34;;;;;;;;;;;14.50;99.90;;;;;;5448195;26;19935;-64
2024/04/11 11:20:09;;;;;;;;;;;14.60;99.90;;;;;;5445761;26;20806;-64
2024/04/11 11:22:40;;;;;;;;;;;14.70;99.90;;;;;;5446232;26;19928;-64
2024/04/11 11:25:08;;;;;;;;;;;14.70;99.90;;;;;;5452927;26;19928;-63
2024/04/11 11:27:35;;;;;;;;;;;14.70;99.90;;;;;;5448771;26;20359;-64
2024/04/11 11:30:06;;;;;;;;;;;14.70;99.90;;;;;;5450546;26;19928;-64
2024/04/11 11:32:35;;;;;;;;;;;14.60;99.90;;;;;;5450961;26;20013;-63
2024/04/11 11:35:05;;;;;;;;;;;14.80;99.90;;;;;;5449800;26;19934;-63
2024/04/11 11:37:32;;;;;;;;;;;14.70;99.90;;;;;;5449110;26;19935;-64
2024/04/11 11:40:38;;;;;;;;;;;14.80;99.90;;;;;;5445255;26;20278;-63
2024/04/11 11:42:56;;;;;;;;;;;14.80;99.90;;;;;;5446680;26;20363;-64
2024/04/11 11:45:29;;;;;;;;;;;14.80;99.90;;;;;;5454040;26;20360;-61
2024/04/11 11:48:12;;;;;;;;;;;14.80;99.90;;;;;;5453330;26;19928;-63
2024/04/11 11:50:39;;;;;;;;;;;14.90;99.90;;;;;;5455170;26;20360;-64
2024/04/11 11:53:24;;;;;;;;;;;14.90;99.90;;;;;;5457978;26;19927;-63
2024/04/11 11:55:58;;;;;;;;;;;14.80;99.90;;;;;;5458945;26;19928;-64
2024/04/11 11:58:25;;;;;;;;;;;14.90;99.90;;;;;;5448229;26;19933;-64
2024/04/11 12:00:59;;;;;;;;;;;14.90;99.90;;;;;;5449178;26;20465;-63
2024/04/11 12:03:30;;;;;;;;;;;15.00;99.90;;;;;;5450239;26;20753;-63
2024/04/11 12:06:04;;;;;;;;;;;14.90;99.90;;;;;;5450050;26;19935;-63
2024/04/11 12:08:37;;;;;;;;;;;15.00;99.90;;;;;;5448856;26;20303;-64
2024/04/11 12:13:34;;;;;;;;;;;15.00;99.90;;;;;;5451393;26;19928;-64
2024/04/11 12:16:04;;;;;;;;;;;15.00;99.90;;;;;;5452345;26;20513;-63
2024/04/11 12:18:31;;;;;;;;;;;15.10;99.90;;;;;;5448740;26;19928;-63
2024/04/11 12:20:58;;;;;;;;;;;15.10;99.90;;;;;;5453666;26;19928;-64
2024/04/11 12:23:28;;;;;;;;;;;15.30;99.90;;;;;;5457120;26;20358;-64
2024/04/11 12:25:56;;;;;;;;;;;15.30;99.90;;;;;;5453056;26;19936;-63
2024/04/11 12:28:22;;;;;;;;;;;15.60;99.90;;;;;;5452317;26;19935;-64
2024/04/11 12:30:59;;;;;;;;;;;15.90;99.90;;;;;;5453209;26;19946;-64
2024/04/11 12:33:27;;;;;;;;;;;16.00;99.90;;;;;;5455358;26;19934;-64
2024/04/11 12:35:59;;;;;;;;;;;16.10;99.90;;;;;;5454339;26;20469;-64
2024/04/11 12:38:30;;;;;;;;;;;16.20;99.90;;;;;;5455377;26;19928;-64
2024/04/11 12:40:58;;;;;;;;;;;16.40;99.90;;;;;;5451346;26;19928;-64
2024/04/11 12:43:28;;;;;;;;;;;16.30;99.90;;;;;;5454120;26;19928;-63
2024/04/11 12:45:58;;;;;;;;;;;16.20;99.90;;;;;;5433459;26;19936;-64
2024/04/11 12:48:25;;;;;;;;;;;16.20;99.90;;;;;;5447344;26;20370;-63
2024/04/11 12:50:55;;;;;;;;;;;16.10;99.90;;;;;;5455652;26;19928;-64
2024/04/11 12:53:22;;;;;;;;;;;16.10;99.90;;;;;;5452308;26;19935;-64
2024/04/11 12:55:58;;;;;;;;;;;16.10;99.90;;;;;;5449532;26;19928;-64
2024/04/11 12:58:26;;;;;;;;;;;16.10;99.90;;;;;;5443783;26;19934;-64
2024/04/11 13:01:03;;;;;;;;;;;16.10;99.90;;;;;;5448345;26;20400;-64
2024/04/11 13:06:22;;;;;;;;;;;16.00;99.90;;;;;;5454339;26;19930;-63
2024/04/11 13:08:49;;;;;;;;;;;15.90;99.90;;;;;;5454492;26;19928;-63
2024/04/11 13:11:36;;;;;;;;;;;15.90;99.90;;;;;;5453035;26;19928;-63
2024/04/11 13:14:10;;;;;;;;;;;15.90;99.90;;;;;;5451092;26;19936;-64
2024/04/11 13:16:38;;;;;;;;;;;16.00;99.90;;;;;;5451285;26;19936;-63
2024/04/11 13:19:05;;;;;;;;;;;15.90;99.90;;;;;;5454701;26;19928;-64
2024/04/11 13:21:38;;;;;;;;;;;15.90;99.90;;;;;;5451429;26;19936;-64
2024/04/11 13:24:10;;;;;;;;;;;15.90;99.90;;;;;;5453787;26;20264;-64
2024/04/11 13:26:50;;;;;;;;;;;15.90;99.90;;;;;;5448069;26;19928;-64
2024/04/11 13:29:18;;;;;;;;;;;15.90;99.90;;;;;;5450926;26;20384;-64
2024/04/11 13:31:51;;;;;;;;;;;15.80;99.90;;;;;;5451697;26;20959;-63
2024/04/11 13:34:38;;;;;;;;;;;15.80;99.90;;;;;;5448125;26;20374;-64
2024/04/11 13:37:13;;;;;;;;;;;15.80;99.90;;;;;;5450928;26;19934;-63
2024/04/11 13:42:27;;;;;;;;;;;15.80;99.90;;;;;;5448801;26;19990;-63
2024/04/11 13:44:54;;;;;;;;;;;15.80;99.90;;;;;;5453042;26;19929;-63
2024/04/11 13:47:25;;;;;;;;;;;15.80;99.90;;;;;;5450461;26;19929;-64
2024/04/11 13:49:58;;;;;;;;;;;15.80;99.90;;;;;;5453513;26;19929;-63
2024/04/11 13:52:31;;;;;;;;;;;15.80;99.90;;;;;;5452610;26;20266;-64
2024/04/11 13:54:59;;;;;;;;;;;15.90;99.90;;;;;;5452578;26;19934;-63
2024/04/11 13:57:32;;;;;;;;;;;15.80;99.90;;;;;;5452073;26;19929;-63
2024/04/11 13:59:59;;;;;;;;;;;15.80;99.90;;;;;;5452426;26;19928;-64
2024/04/11 14:05:11;;;;;;;;;;;15.90;99.90;;;;;;5451515;26;19928;-64
2024/04/11 14:07:41;;;;;;;;;;;15.80;99.90;;;;;;5452912;26;19929;-63
2024/04/11 14:10:13;;;;;;;;;;;15.80;99.90;;;;;;5448554;26;19934;-64
2024/04/11 14:12:40;;;;;;;;;;;15.80;99.90;;;;;;5452469;26;20375;-63
2024/04/11 14:15:07;;;;;;;;;;;15.80;99.90;;;;;;5453327;26;19928;-63
2024/04/11 14:17:34;;;;;;;;;;;15.80;99.90;;;;;;5454583;26;19928;-63
2024/04/11 14:22:49;;;;;;;;;;;15.70;99.90;;;;;;5452951;26;19928;-62
2024/04/11 14:25:29;;;;;;;;;;;15.80;99.90;;;;;;5450487;26;19928;-63
2024/04/11 14:28:00;;;;;;;;;;;15.80;99.90;;;;;;5452849;26;20278;-61
2024/04/11 14:30:33;;;;;;;;;;;15.90;99.90;;;;;;5450768;26;20369;-61
2024/04/11 14:33:44;;;;;;;;;;;15.90;99.90;;;;;;5450140;26;19934;-62
2024/04/11 14:38:36;;;;;;;;;;;15.90;99.90;;;;;;5450289;26;19928;-62
2024/04/11 14:41:04;;;;;;;;;;;15.90;99.90;;;;;;5450306;26;19935;-61
2024/04/11 14:43:32;;;;;;;;;;;15.90;99.90;;;;;;5457335;26;19928;-61